Аэропорт
Пудун (ZSPD)

 ZSPD / PVG

China
CN-31
Шанхай-Пудун
 31.14340, 121.80500  / 13 ft

 ZSPD 182330Z 28004MPS 2800 BR BKN016 20/19 Q1019 NOSIG
 TAF ZSPD 180931Z 1812/1912 25003MPS 5000 BR BKN016 TX24/1906Z TN16/1821Z BECMG 1815/1816 34004MPS

2020 © VATRUS division (Privacy Policy)